sensor_id;sensor_type;location;lat;lon;timestamp;P1;durP1;ratioP1;P2;durP2;ratioP2
71558;SDS011;59382;43.852;25.952;2023-06-10T00:01:44;5.30;;;3.78;;
71558;SDS011;59382;43.852;25.952;2023-06-10T00:04:13;4.82;;;3.13;;
71558;SDS011;59382;43.852;25.952;2023-06-10T00:06:40;5.25;;;3.28;;
71558;SDS011;59382;43.852;25.952;2023-06-10T00:09:06;4.47;;;2.72;;
71558;SDS011;59382;43.852;25.952;2023-06-10T00:11:36;4.20;;;3.38;;
71558;SDS011;59382;43.852;25.952;2023-06-10T00:14:02;5.13;;;3.25;;
71558;SDS011;59382;43.852;25.952;2023-06-10T00:16:28;5.03;;;3.10;;
71558;SDS011;59382;43.852;25.952;2023-06-10T00:18:54;4.65;;;3.35;;
71558;SDS011;59382;43.852;25.952;2023-06-10T00:21:26;7.10;;;3.00;;
71558;SDS011;59382;43.852;25.952;2023-06-10T00:24:08;5.47;;;3.70;;
71558;SDS011;59382;43.852;25.952;2023-06-10T00:26:39;4.20;;;3.50;;
71558;SDS011;59382;43.852;25.952;2023-06-10T00:29:05;6.28;;;3.33;;
71558;SDS011;59382;43.852;25.952;2023-06-10T00:31:32;7.53;;;3.58;;
71558;SDS011;59382;43.852;25.952;2023-06-10T00:33:59;5.97;;;3.55;;
71558;SDS011;59382;43.852;25.952;2023-06-10T00:36:24;4.35;;;3.10;;
71558;SDS011;59382;43.852;25.952;2023-06-10T00:38:50;4.72;;;3.20;;
71558;SDS011;59382;43.852;25.952;2023-06-10T00:41:15;6.90;;;2.97;;
71558;SDS011;59382;43.852;25.952;2023-06-10T00:43:41;5.78;;;3.00;;
71558;SDS011;59382;43.852;25.952;2023-06-10T00:46:06;3.10;;;2.65;;
71558;SDS011;59382;43.852;25.952;2023-06-10T00:48:32;3.35;;;2.58;;
71558;SDS011;59382;43.852;25.952;2023-06-10T00:50:58;3.00;;;2.55;;
71558;SDS011;59382;43.852;25.952;2023-06-10T00:53:25;2.88;;;2.35;;
71558;SDS011;59382;43.852;25.952;2023-06-10T00:55:51;3.03;;;2.72;;
71558;SDS011;59382;43.852;25.952;2023-06-10T00:58:17;6.03;;;2.88;;
71558;SDS011;59382;43.852;25.952;2023-06-10T01:00:43;3.20;;;2.40;;
71558;SDS011;59382;43.852;25.952;2023-06-10T01:03:10;5.32;;;2.75;;
71558;SDS011;59382;43.852;25.952;2023-06-10T01:05:37;3.58;;;3.00;;
71558;SDS011;59382;43.852;25.952;2023-06-10T01:08:09;4.15;;;2.63;;
71558;SDS011;59382;43.852;25.952;2023-06-10T01:10:38;4.00;;;2.85;;
71558;SDS011;59382;43.852;25.952;2023-06-10T01:13:11;3.75;;;2.70;;
71558;SDS011;59382;43.852;25.952;2023-06-10T01:15:38;3.40;;;2.53;;
71558;SDS011;59382;43.852;25.952;2023-06-10T01:18:08;5.93;;;2.70;;
71558;SDS011;59382;43.852;25.952;2023-06-10T01:20:37;2.90;;;2.30;;
71558;SDS011;59382;43.852;25.952;2023-06-10T01:23:05;6.45;;;2.88;;
71558;SDS011;59382;43.852;25.952;2023-06-10T01:25:31;3.03;;;2.40;;
71558;SDS011;59382;43.852;25.952;2023-06-10T01:33:14;3.03;;;2.60;;
71558;SDS011;59382;43.852;25.952;2023-06-10T01:35:44;4.38;;;2.78;;
71558;SDS011;59382;43.852;25.952;2023-06-10T01:38:11;2.40;;;2.20;;
71558;SDS011;59382;43.852;25.952;2023-06-10T01:40:38;4.32;;;2.50;;
71558;SDS011;59382;43.852;25.952;2023-06-10T01:43:05;4.75;;;2.55;;
71558;SDS011;59382;43.852;25.952;2023-06-10T01:45:33;3.58;;;2.50;;
71558;SDS011;59382;43.852;25.952;2023-06-10T01:47:59;4.57;;;2.60;;
71558;SDS011;59382;43.852;25.952;2023-06-10T01:50:24;4.68;;;2.70;;
71558;SDS011;59382;43.852;25.952;2023-06-10T01:52:50;3.10;;;2.40;;
71558;SDS011;59382;43.852;25.952;2023-06-10T01:55:15;7.97;;;2.72;;
71558;SDS011;59382;43.852;25.952;2023-06-10T01:57:41;4.60;;;2.67;;
71558;SDS011;59382;43.852;25.952;2023-06-10T02:00:07;3.00;;;2.40;;
71558;SDS011;59382;43.852;25.952;2023-06-10T02:02:33;3.28;;;2.78;;
71558;SDS011;59382;43.852;25.952;2023-06-10T02:04:58;4.57;;;2.67;;
71558;SDS011;59382;43.852;25.952;2023-06-10T02:07:25;11.70;;;3.63;;
71558;SDS011;59382;43.852;25.952;2023-06-10T02:09:50;4.97;;;2.67;;
71558;SDS011;59382;43.852;25.952;2023-06-10T02:12:16;4.32;;;2.80;;
71558;SDS011;59382;43.852;25.952;2023-06-10T02:14:41;5.07;;;2.58;;
71558;SDS011;59382;43.852;25.952;2023-06-10T02:17:07;2.92;;;2.58;;
71558;SDS011;59382;43.852;25.952;2023-06-10T02:19:32;4.32;;;2.53;;
71558;SDS011;59382;43.852;25.952;2023-06-10T02:22:01;3.00;;;2.42;;
71558;SDS011;59382;43.852;25.952;2023-06-10T02:24:27;3.08;;;2.70;;
71558;SDS011;59382;43.852;25.952;2023-06-10T02:26:52;2.50;;;2.30;;
71558;SDS011;59382;43.852;25.952;2023-06-10T02:29:18;4.03;;;2.83;;
71558;SDS011;59382;43.852;25.952;2023-06-10T02:31:43;4.72;;;2.88;;
71558;SDS011;59382;43.852;25.952;2023-06-10T02:34:09;3.78;;;2.58;;
71558;SDS011;59382;43.852;25.952;2023-06-10T02:36:34;6.18;;;2.20;;
71558;SDS011;59382;43.852;25.952;2023-06-10T02:39:01;3.97;;;2.40;;
71558;SDS011;59382;43.852;25.952;2023-06-10T02:41:28;7.70;;;2.65;;
71558;SDS011;59382;43.852;25.952;2023-06-10T02:43:53;4.13;;;2.67;;
71558;SDS011;59382;43.852;25.952;2023-06-10T02:46:19;5.20;;;2.95;;
71558;SDS011;59382;43.852;25.952;2023-06-10T02:48:45;5.38;;;3.10;;
71558;SDS011;59382;43.852;25.952;2023-06-10T02:51:10;4.78;;;3.10;;
71558;SDS011;59382;43.852;25.952;2023-06-10T02:53:38;6.82;;;3.97;;
71558;SDS011;59382;43.852;25.952;2023-06-10T02:56:04;8.95;;;4.57;;
71558;SDS011;59382;43.852;25.952;2023-06-10T02:58:29;9.40;;;5.05;;
71558;SDS011;59382;43.852;25.952;2023-06-10T03:00:55;8.05;;;4.93;;
71558;SDS011;59382;43.852;25.952;2023-06-10T03:03:21;9.27;;;5.68;;
71558;SDS011;59382;43.852;25.952;2023-06-10T03:05:47;10.40;;;5.82;;
71558;SDS011;59382;43.852;25.952;2023-06-10T03:08:14;15.32;;;5.55;;
71558;SDS011;59382;43.852;25.952;2023-06-10T03:10:39;12.60;;;5.78;;
71558;SDS011;59382;43.852;25.952;2023-06-10T03:13:05;12.23;;;6.30;;
71558;SDS011;59382;43.852;25.952;2023-06-10T03:15:30;8.10;;;5.95;;
71558;SDS011;59382;43.852;25.952;2023-06-10T03:17:58;14.95;;;6.28;;
71558;SDS011;59382;43.852;25.952;2023-06-10T03:20:25;10.70;;;5.50;;
71558;SDS011;59382;43.852;25.952;2023-06-10T03:22:52;10.40;;;5.70;;
71558;SDS011;59382;43.852;25.952;2023-06-10T03:25:18;10.07;;;5.70;;
71558;SDS011;59382;43.852;25.952;2023-06-10T03:27:45;15.02;;;5.70;;
71558;SDS011;59382;43.852;25.952;2023-06-10T03:30:12;9.75;;;5.93;;
71558;SDS011;59382;43.852;25.952;2023-06-10T03:32:38;8.05;;;4.53;;
71558;SDS011;59382;43.852;25.952;2023-06-10T03:35:05;15.38;;;5.70;;
71558;SDS011;59382;43.852;25.952;2023-06-10T03:37:32;11.00;;;4.95;;
71558;SDS011;59382;43.852;25.952;2023-06-10T03:39:57;9.02;;;4.30;;
71558;SDS011;59382;43.852;25.952;2023-06-10T03:42:23;7.00;;;4.25;;
71558;SDS011;59382;43.852;25.952;2023-06-10T03:44:48;5.40;;;3.60;;
71558;SDS011;59382;43.852;25.952;2023-06-10T03:47:14;5.40;;;3.80;;
71558;SDS011;59382;43.852;25.952;2023-06-10T03:49:39;6.45;;;3.50;;
71558;SDS011;59382;43.852;25.952;2023-06-10T03:52:05;6.22;;;4.28;;
71558;SDS011;59382;43.852;25.952;2023-06-10T03:54:31;18.75;;;5.50;;
71558;SDS011;59382;43.852;25.952;2023-06-10T03:56:59;18.20;;;4.53;;
71558;SDS011;59382;43.852;25.952;2023-06-10T03:59:25;15.48;;;4.72;;
71558;SDS011;59382;43.852;25.952;2023-06-10T04:01:51;8.25;;;4.97;;
71558;SDS011;59382;43.852;25.952;2023-06-10T04:04:16;7.15;;;4.07;;
71558;SDS011;59382;43.852;25.952;2023-06-10T04:06:42;7.35;;;3.80;;
71558;SDS011;59382;43.852;25.952;2023-06-10T04:09:09;6.88;;;3.67;;
71558;SDS011;59382;43.852;25.952;2023-06-10T04:11:35;6.82;;;3.45;;
71558;SDS011;59382;43.852;25.952;2023-06-10T04:14:01;6.50;;;3.33;;
71558;SDS011;59382;43.852;25.952;2023-06-10T04:16:27;8.07;;;3.53;;
71558;SDS011;59382;43.852;25.952;2023-06-10T04:18:52;7.18;;;3.95;;
71558;SDS011;59382;43.852;25.952;2023-06-10T04:21:20;6.68;;;3.60;;
71558;SDS011;59382;43.852;25.952;2023-06-10T04:23:47;8.10;;;3.97;;
71558;SDS011;59382;43.852;25.952;2023-06-10T04:26:12;7.93;;;4.20;;
71558;SDS011;59382;43.852;25.952;2023-06-10T04:28:38;5.82;;;4.50;;
71558;SDS011;59382;43.852;25.952;2023-06-10T04:31:03;12.45;;;4.50;;
71558;SDS011;59382;43.852;25.952;2023-06-10T04:33:29;9.07;;;4.07;;
71558;SDS011;59382;43.852;25.952;2023-06-10T04:35:55;8.02;;;4.47;;
71558;SDS011;59382;43.852;25.952;2023-06-10T04:38:21;6.10;;;3.78;;
71558;SDS011;59382;43.852;25.952;2023-06-10T04:40:47;10.02;;;3.80;;
71558;SDS011;59382;43.852;25.952;2023-06-10T04:43:13;7.68;;;4.05;;
71558;SDS011;59382;43.852;25.952;2023-06-10T04:45:38;8.40;;;4.47;;
71558;SDS011;59382;43.852;25.952;2023-06-10T04:48:04;9.52;;;5.05;;
71558;SDS011;59382;43.852;25.952;2023-06-10T04:50:30;3.95;;;3.38;;
71558;SDS011;59382;43.852;25.952;2023-06-10T04:52:58;7.18;;;4.35;;
71558;SDS011;59382;43.852;25.952;2023-06-10T04:55:24;6.60;;;3.47;;
71558;SDS011;59382;43.852;25.952;2023-06-10T04:57:50;7.78;;;4.15;;
71558;SDS011;59382;43.852;25.952;2023-06-10T05:00:16;14.10;;;4.20;;
71558;SDS011;59382;43.852;25.952;2023-06-10T05:02:42;8.65;;;4.50;;
71558;SDS011;59382;43.852;25.952;2023-06-10T05:05:08;7.03;;;3.85;;
71558;SDS011;59382;43.852;25.952;2023-06-10T05:07:36;6.40;;;4.53;;
71558;SDS011;59382;43.852;25.952;2023-06-10T05:10:01;8.80;;;4.28;;
71558;SDS011;59382;43.852;25.952;2023-06-10T05:12:28;10.02;;;4.20;;
71558;SDS011;59382;43.852;25.952;2023-06-10T05:14:53;6.05;;;4.00;;
71558;SDS011;59382;43.852;25.952;2023-06-10T05:17:19;6.78;;;4.22;;
71558;SDS011;59382;43.852;25.952;2023-06-10T05:19:44;4.82;;;3.83;;
71558;SDS011;59382;43.852;25.952;2023-06-10T05:22:10;8.07;;;4.07;;
71558;SDS011;59382;43.852;25.952;2023-06-10T05:24:36;5.28;;;3.97;;
71558;SDS011;59382;43.852;25.952;2023-06-10T05:27:01;5.88;;;4.03;;
71558;SDS011;59382;43.852;25.952;2023-06-10T05:29:27;11.90;;;4.45;;
71558;SDS011;59382;43.852;25.952;2023-06-10T05:31:53;6.63;;;4.25;;
71558;SDS011;59382;43.852;25.952;2023-06-10T05:34:21;5.28;;;3.78;;
71558;SDS011;59382;43.852;25.952;2023-06-10T05:36:47;6.35;;;3.50;;
71558;SDS011;59382;43.852;25.952;2023-06-10T05:39:12;7.97;;;4.18;;
71558;SDS011;59382;43.852;25.952;2023-06-10T05:41:38;7.82;;;3.90;;
71558;SDS011;59382;43.852;25.952;2023-06-10T05:44:03;5.63;;;4.00;;
71558;SDS011;59382;43.852;25.952;2023-06-10T05:46:29;7.57;;;4.25;;
71558;SDS011;59382;43.852;25.952;2023-06-10T05:48:55;7.00;;;4.20;;
71558;SDS011;59382;43.852;25.952;2023-06-10T05:51:20;7.35;;;3.78;;
71558;SDS011;59382;43.852;25.952;2023-06-10T05:53:46;9.93;;;5.53;;
71558;SDS011;59382;43.852;25.952;2023-06-10T05:56:12;12.38;;;4.85;;
71558;SDS011;59382;43.852;25.952;2023-06-10T05:58:38;5.25;;;3.80;;
71558;SDS011;59382;43.852;25.952;2023-06-10T06:01:04;5.75;;;4.00;;
71558;SDS011;59382;43.852;25.952;2023-06-10T06:03:32;6.82;;;3.90;;
71558;SDS011;59382;43.852;25.952;2023-06-10T06:05:57;5.65;;;4.00;;
71558;SDS011;59382;43.852;25.952;2023-06-10T06:08:23;14.77;;;4.25;;
71558;SDS011;59382;43.852;25.952;2023-06-10T06:10:48;8.98;;;4.32;;
71558;SDS011;59382;43.852;25.952;2023-06-10T06:13:15;7.38;;;3.78;;
71558;SDS011;59382;43.852;25.952;2023-06-10T06:15:40;6.60;;;3.70;;
71558;SDS011;59382;43.852;25.952;2023-06-10T06:18:06;11.13;;;4.10;;
71558;SDS011;59382;43.852;25.952;2023-06-10T06:20:31;7.80;;;4.28;;
71558;SDS011;59382;43.852;25.952;2023-06-10T06:22:57;4.75;;;3.33;;
71558;SDS011;59382;43.852;25.952;2023-06-10T06:25:22;14.95;;;4.18;;
71558;SDS011;59382;43.852;25.952;2023-06-10T06:27:48;5.38;;;3.45;;
71558;SDS011;59382;43.852;25.952;2023-06-10T06:30:13;11.35;;;4.03;;
71558;SDS011;59382;43.852;25.952;2023-06-10T06:32:39;5.45;;;3.50;;
71558;SDS011;59382;43.852;25.952;2023-06-10T06:35:05;12.85;;;3.80;;
71558;SDS011;59382;43.852;25.952;2023-06-10T06:37:32;6.45;;;4.43;;
71558;SDS011;59382;43.852;25.952;2023-06-10T06:39:58;5.28;;;3.58;;
71558;SDS011;59382;43.852;25.952;2023-06-10T06:42:24;7.47;;;3.70;;
71558;SDS011;59382;43.852;25.952;2023-06-10T06:44:49;7.18;;;4.05;;
71558;SDS011;59382;43.852;25.952;2023-06-10T06:47:15;9.35;;;3.70;;
71558;SDS011;59382;43.852;25.952;2023-06-10T06:49:43;5.40;;;3.75;;
71558;SDS011;59382;43.852;25.952;2023-06-10T06:52:08;5.90;;;3.47;;
71558;SDS011;59382;43.852;25.952;2023-06-10T06:54:34;4.85;;;3.55;;
71558;SDS011;59382;43.852;25.952;2023-06-10T06:56:59;10.30;;;3.90;;
71558;SDS011;59382;43.852;25.952;2023-06-10T06:59:25;8.65;;;4.90;;
71558;SDS011;59382;43.852;25.952;2023-06-10T07:01:50;6.72;;;4.45;;
71558;SDS011;59382;43.852;25.952;2023-06-10T07:04:16;10.00;;;3.53;;
71558;SDS011;59382;43.852;25.952;2023-06-10T07:06:41;4.57;;;3.35;;
71558;SDS011;59382;43.852;25.952;2023-06-10T07:09:07;12.95;;;4.05;;
71558;SDS011;59382;43.852;25.952;2023-06-10T07:11:36;12.55;;;4.35;;
71558;SDS011;59382;43.852;25.952;2023-06-10T07:14:01;5.40;;;3.70;;
71558;SDS011;59382;43.852;25.952;2023-06-10T07:16:27;6.28;;;3.83;;
71558;SDS011;59382;43.852;25.952;2023-06-10T07:18:52;13.15;;;3.90;;
71558;SDS011;59382;43.852;25.952;2023-06-10T07:21:18;7.25;;;4.20;;
71558;SDS011;59382;43.852;25.952;2023-06-10T07:23:44;13.45;;;4.80;;
71558;SDS011;59382;43.852;25.952;2023-06-10T07:26:10;9.15;;;3.72;;
71558;SDS011;59382;43.852;25.952;2023-06-10T07:28:39;4.82;;;3.65;;
71558;SDS011;59382;43.852;25.952;2023-06-10T07:31:08;4.68;;;3.65;;
71558;SDS011;59382;43.852;25.952;2023-06-10T07:33:34;11.05;;;3.83;;
71558;SDS011;59382;43.852;25.952;2023-06-10T07:36:00;7.60;;;4.38;;
71558;SDS011;59382;43.852;25.952;2023-06-10T07:38:26;8.98;;;4.47;;
71558;SDS011;59382;43.852;25.952;2023-06-10T07:40:52;4.88;;;3.30;;
71558;SDS011;59382;43.852;25.952;2023-06-10T07:43:17;7.88;;;3.95;;
71558;SDS011;59382;43.852;25.952;2023-06-10T07:45:43;9.82;;;3.83;;
71558;SDS011;59382;43.852;25.952;2023-06-10T07:48:09;7.70;;;3.80;;
71558;SDS011;59382;43.852;25.952;2023-06-10T07:50:35;6.88;;;3.85;;
71558;SDS011;59382;43.852;25.952;2023-06-10T07:53:01;5.82;;;3.90;;
71558;SDS011;59382;43.852;25.952;2023-06-10T07:55:26;6.90;;;4.40;;
71558;SDS011;59382;43.852;25.952;2023-06-10T07:57:52;6.65;;;3.75;;
71558;SDS011;59382;43.852;25.952;2023-06-10T08:00:18;5.80;;;4.40;;
71558;SDS011;59382;43.852;25.952;2023-06-10T08:02:44;11.18;;;4.22;;
71558;SDS011;59382;43.852;25.952;2023-06-10T08:05:10;6.82;;;3.70;;
71558;SDS011;59382;43.852;25.952;2023-06-10T08:07:35;6.32;;;3.72;;
71558;SDS011;59382;43.852;25.952;2023-06-10T08:10:01;8.43;;;4.03;;
71558;SDS011;59382;43.852;25.952;2023-06-10T08:12:27;8.00;;;4.47;;
71558;SDS011;59382;43.852;25.952;2023-06-10T08:14:53;7.75;;;4.55;;
71558;SDS011;59382;43.852;25.952;2023-06-10T08:17:23;9.35;;;4.75;;
71558;SDS011;59382;43.852;25.952;2023-06-10T08:19:49;5.53;;;3.90;;
71558;SDS011;59382;43.852;25.952;2023-06-10T08:22:14;7.65;;;4.30;;
71558;SDS011;59382;43.852;25.952;2023-06-10T08:24:40;10.43;;;4.40;;
71558;SDS011;59382;43.852;25.952;2023-06-10T08:27:05;6.82;;;4.65;;
71558;SDS011;59382;43.852;25.952;2023-06-10T08:29:31;7.05;;;4.10;;
71558;SDS011;59382;43.852;25.952;2023-06-10T08:31:57;14.30;;;5.05;;
71558;SDS011;59382;43.852;25.952;2023-06-10T08:34:23;13.88;;;4.60;;
71558;SDS011;59382;43.852;25.952;2023-06-10T08:36:49;12.50;;;4.80;;
71558;SDS011;59382;43.852;25.952;2023-06-10T08:39:20;9.43;;;4.55;;
71558;SDS011;59382;43.852;25.952;2023-06-10T08:44:31;8.55;;;4.97;;
71558;SDS011;59382;43.852;25.952;2023-06-10T08:46:58;9.63;;;5.25;;
71558;SDS011;59382;43.852;25.952;2023-06-10T08:49:29;6.90;;;4.72;;
71558;SDS011;59382;43.852;25.952;2023-06-10T08:51:59;44.65;;;6.63;;
71558;SDS011;59382;43.852;25.952;2023-06-10T08:54:30;10.35;;;4.90;;
71558;SDS011;59382;43.852;25.952;2023-06-10T08:56:57;15.43;;;5.30;;
71558;SDS011;59382;43.852;25.952;2023-06-10T08:59:25;11.35;;;4.90;;
71558;SDS011;59382;43.852;25.952;2023-06-10T09:01:51;12.30;;;5.88;;
71558;SDS011;59382;43.852;25.952;2023-06-10T09:04:18;9.95;;;4.97;;
71558;SDS011;59382;43.852;25.952;2023-06-10T09:06:45;11.05;;;4.78;;
71558;SDS011;59382;43.852;25.952;2023-06-10T09:09:12;9.70;;;4.95;;
71558;SDS011;59382;43.852;25.952;2023-06-10T09:11:40;11.30;;;5.22;;
71558;SDS011;59382;43.852;25.952;2023-06-10T09:14:07;17.52;;;5.43;;
71558;SDS011;59382;43.852;25.952;2023-06-10T09:16:33;11.60;;;5.13;;
71558;SDS011;59382;43.852;25.952;2023-06-10T09:18:58;10.55;;;4.95;;
71558;SDS011;59382;43.852;25.952;2023-06-10T09:21:24;9.90;;;4.90;;
71558;SDS011;59382;43.852;25.952;2023-06-10T09:23:50;10.32;;;4.95;;
71558;SDS011;59382;43.852;25.952;2023-06-10T09:26:17;16.33;;;5.05;;
71558;SDS011;59382;43.852;25.952;2023-06-10T09:28:50;10.52;;;4.85;;
71558;SDS011;59382;43.852;25.952;2023-06-10T09:31:15;9.43;;;4.88;;
71558;SDS011;59382;43.852;25.952;2023-06-10T09:33:46;9.43;;;4.88;;
71558;SDS011;59382;43.852;25.952;2023-06-10T09:36:21;9.38;;;5.13;;
71558;SDS011;59382;43.852;25.952;2023-06-10T09:38:49;12.40;;;5.75;;
71558;SDS011;59382;43.852;25.952;2023-06-10T09:41:16;15.80;;;5.22;;
71558;SDS011;59382;43.852;25.952;2023-06-10T09:43:43;15.18;;;5.57;;
71558;SDS011;59382;43.852;25.952;2023-06-10T09:46:16;16.00;;;5.47;;
71558;SDS011;59382;43.852;25.952;2023-06-10T09:48:43;10.05;;;5.25;;
71558;SDS011;59382;43.852;25.952;2023-06-10T09:51:10;11.23;;;4.88;;
71558;SDS011;59382;43.852;25.952;2023-06-10T09:53:37;7.10;;;4.65;;
71558;SDS011;59382;43.852;25.952;2023-06-10T09:56:02;14.50;;;5.30;;
71558;SDS011;59382;43.852;25.952;2023-06-10T09:58:37;8.23;;;4.45;;
71558;SDS011;59382;43.852;25.952;2023-06-10T10:01:11;10.10;;;4.55;;
71558;SDS011;59382;43.852;25.952;2023-06-10T10:03:44;11.77;;;5.03;;
71558;SDS011;59382;43.852;25.952;2023-06-10T10:06:17;10.10;;;4.85;;
71558;SDS011;59382;43.852;25.952;2023-06-10T10:08:45;12.82;;;4.65;;
71558;SDS011;59382;43.852;25.952;2023-06-10T10:11:12;9.18;;;5.60;;
71558;SDS011;59382;43.852;25.952;2023-06-10T10:13:42;14.93;;;4.75;;
71558;SDS011;59382;43.852;25.952;2023-06-10T10:16:11;7.63;;;4.70;;
71558;SDS011;59382;43.852;25.952;2023-06-10T10:18:43;11.43;;;4.43;;
71558;SDS011;59382;43.852;25.952;2023-06-10T10:21:15;6.57;;;4.50;;
71558;SDS011;59382;43.852;25.952;2023-06-10T10:23:59;10.05;;;4.90;;
71558;SDS011;59382;43.852;25.952;2023-06-10T10:26:31;4.63;;;3.40;;
71558;SDS011;59382;43.852;25.952;2023-06-10T10:29:01;5.68;;;3.97;;
71558;SDS011;59382;43.852;25.952;2023-06-10T10:31:36;9.52;;;5.40;;
71558;SDS011;59382;43.852;25.952;2023-06-10T10:34:09;7.15;;;4.00;;
71558;SDS011;59382;43.852;25.952;2023-06-10T10:36:38;7.22;;;3.53;;
71558;SDS011;59382;43.852;25.952;2023-06-10T10:39:05;3.17;;;2.88;;
71558;SDS011;59382;43.852;25.952;2023-06-10T10:41:37;4.40;;;2.58;;
71558;SDS011;59382;43.852;25.952;2023-06-10T10:44:08;3.95;;;2.40;;
71558;SDS011;59382;43.852;25.952;2023-06-10T10:46:44;4.78;;;2.60;;
71558;SDS011;59382;43.852;25.952;2023-06-10T10:49:15;12.23;;;3.20;;
71558;SDS011;59382;43.852;25.952;2023-06-10T10:51:59;7.68;;;2.83;;
71558;SDS011;59382;43.852;25.952;2023-06-10T10:54:34;9.73;;;3.20;;
71558;SDS011;59382;43.852;25.952;2023-06-10T11:02:33;3.33;;;2.65;;
71558;SDS011;59382;43.852;25.952;2023-06-10T11:05:01;3.50;;;2.60;;
71558;SDS011;59382;43.852;25.952;2023-06-10T11:07:26;7.35;;;3.05;;
71558;SDS011;59382;43.852;25.952;2023-06-10T11:15:18;4.65;;;3.00;;
71558;SDS011;59382;43.852;25.952;2023-06-10T11:31:25;4.00;;;2.90;;
71558;SDS011;59382;43.852;25.952;2023-06-10T11:33:58;9.48;;;3.45;;
71558;SDS011;59382;43.852;25.952;2023-06-10T11:36:26;5.03;;;2.90;;
71558;SDS011;59382;43.852;25.952;2023-06-10T11:39:05;8.10;;;3.50;;
71558;SDS011;59382;43.852;25.952;2023-06-10T11:41:32;4.20;;;2.45;;
71558;SDS011;59382;43.852;25.952;2023-06-10T11:44:04;6.88;;;2.22;;
71558;SDS011;59382;43.852;25.952;2023-06-10T11:46:35;6.82;;;2.97;;
71558;SDS011;59382;43.852;25.952;2023-06-10T11:49:05;4.78;;;2.70;;
71558;SDS011;59382;43.852;25.952;2023-06-10T11:51:37;2.28;;;1.75;;
71558;SDS011;59382;43.852;25.952;2023-06-10T11:54:05;3.63;;;2.50;;
71558;SDS011;59382;43.852;25.952;2023-06-10T11:56:35;12.85;;;3.53;;
71558;SDS011;59382;43.852;25.952;2023-06-10T11:59:02;6.10;;;2.88;;
71558;SDS011;59382;43.852;25.952;2023-06-10T12:01:34;3.92;;;2.90;;
71558;SDS011;59382;43.852;25.952;2023-06-10T12:04:15;4.60;;;3.03;;
71558;SDS011;59382;43.852;25.952;2023-06-10T12:06:45;5.00;;;3.00;;
71558;SDS011;59382;43.852;25.952;2023-06-10T12:09:20;8.32;;;3.00;;
71558;SDS011;59382;43.852;25.952;2023-06-10T12:11:49;5.07;;;2.65;;
71558;SDS011;59382;43.852;25.952;2023-06-10T12:17:20;4.35;;;2.80;;
71558;SDS011;59382;43.852;25.952;2023-06-10T12:20:06;11.18;;;4.30;;
71558;SDS011;59382;43.852;25.952;2023-06-10T12:23:21;9.20;;;3.40;;
71558;SDS011;59382;43.852;25.952;2023-06-10T12:25:50;10.05;;;3.88;;
71558;SDS011;59382;43.852;25.952;2023-06-10T12:28:23;7.70;;;4.25;;
71558;SDS011;59382;43.852;25.952;2023-06-10T12:31:06;16.00;;;5.80;;
71558;SDS011;59382;43.852;25.952;2023-06-10T12:33:32;5.18;;;3.92;;
71558;SDS011;59382;43.852;25.952;2023-06-10T12:36:01;8.13;;;4.05;;
71558;SDS011;59382;43.852;25.952;2023-06-10T12:39:33;5.05;;;3.72;;
71558;SDS011;59382;43.852;25.952;2023-06-10T12:42:27;9.40;;;3.97;;
71558;SDS011;59382;43.852;25.952;2023-06-10T12:49:32;9.45;;;4.28;;
71558;SDS011;59382;43.852;25.952;2023-06-10T12:52:37;10.25;;;3.80;;
71558;SDS011;59382;43.852;25.952;2023-06-10T12:55:42;9.98;;;4.18;;
71558;SDS011;59382;43.852;25.952;2023-06-10T12:59:16;10.95;;;4.25;;
71558;SDS011;59382;43.852;25.952;2023-06-10T13:02:00;4.75;;;3.25;;
71558;SDS011;59382;43.852;25.952;2023-06-10T13:05:10;6.82;;;4.00;;
71558;SDS011;59382;43.852;25.952;2023-06-10T13:08:24;7.50;;;3.70;;
71558;SDS011;59382;43.852;25.952;2023-06-10T13:11:39;7.22;;;3.90;;
71558;SDS011;59382;43.852;25.952;2023-06-10T13:14:21;6.80;;;3.85;;
71558;SDS011;59382;43.852;25.952;2023-06-10T13:16:46;8.05;;;3.90;;
71558;SDS011;59382;43.852;25.952;2023-06-10T13:19:12;9.20;;;3.85;;
71558;SDS011;59382;43.852;25.952;2023-06-10T13:21:40;6.22;;;3.50;;
71558;SDS011;59382;43.852;25.952;2023-06-10T13:24:06;10.27;;;3.42;;
71558;SDS011;59382;43.852;25.952;2023-06-10T13:26:31;9.68;;;3.85;;
71558;SDS011;59382;43.852;25.952;2023-06-10T13:29:06;9.93;;;4.20;;
71558;SDS011;59382;43.852;25.952;2023-06-10T13:31:48;6.90;;;3.75;;
71558;SDS011;59382;43.852;25.952;2023-06-10T13:34:13;6.20;;;3.83;;
71558;SDS011;59382;43.852;25.952;2023-06-10T13:43:49;8.35;;;3.30;;
71558;SDS011;59382;43.852;25.952;2023-06-10T13:47:19;6.72;;;3.58;;
71558;SDS011;59382;43.852;25.952;2023-06-10T13:49:47;5.65;;;3.25;;
71558;SDS011;59382;43.852;25.952;2023-06-10T13:52:13;4.20;;;3.08;;
71558;SDS011;59382;43.852;25.952;2023-06-10T13:54:42;8.82;;;3.72;;
71558;SDS011;59382;43.852;25.952;2023-06-10T13:57:07;6.28;;;3.30;;
71558;SDS011;59382;43.852;25.952;2023-06-10T13:59:35;4.70;;;3.55;;
71558;SDS011;59382;43.852;25.952;2023-06-10T14:02:03;6.05;;;3.50;;
71558;SDS011;59382;43.852;25.952;2023-06-10T14:04:29;7.38;;;3.85;;
71558;SDS011;59382;43.852;25.952;2023-06-10T14:06:54;11.02;;;4.93;;
71558;SDS011;59382;43.852;25.952;2023-06-10T14:09:20;8.63;;;3.97;;
71558;SDS011;59382;43.852;25.952;2023-06-10T14:11:45;4.28;;;3.63;;
71558;SDS011;59382;43.852;25.952;2023-06-10T14:14:12;7.00;;;4.00;;
71558;SDS011;59382;43.852;25.952;2023-06-10T14:16:42;8.27;;;3.63;;
71558;SDS011;59382;43.852;25.952;2023-06-10T14:19:07;4.53;;;3.63;;
71558;SDS011;59382;43.852;25.952;2023-06-10T14:21:33;8.38;;;3.88;;
71558;SDS011;59382;43.852;25.952;2023-06-10T14:23:59;9.15;;;3.78;;
71558;SDS011;59382;43.852;25.952;2023-06-10T14:26:28;9.30;;;3.45;;
71558;SDS011;59382;43.852;25.952;2023-06-10T14:28:53;4.88;;;3.47;;
71558;SDS011;59382;43.852;25.952;2023-06-10T14:31:20;6.88;;;3.42;;
71558;SDS011;59382;43.852;25.952;2023-06-10T14:33:48;4.22;;;3.72;;
71558;SDS011;59382;43.852;25.952;2023-06-10T14:36:16;4.30;;;3.80;;
71558;SDS011;59382;43.852;25.952;2023-06-10T14:38:48;8.10;;;3.38;;
71558;SDS011;59382;43.852;25.952;2023-06-10T14:41:13;5.95;;;3.85;;
71558;SDS011;59382;43.852;25.952;2023-06-10T14:43:42;3.72;;;3.35;;
71558;SDS011;59382;43.852;25.952;2023-06-10T14:46:16;5.73;;;3.70;;
71558;SDS011;59382;43.852;25.952;2023-06-10T14:48:51;6.70;;;3.42;;
71558;SDS011;59382;43.852;25.952;2023-06-10T14:51:23;7.90;;;3.58;;
71558;SDS011;59382;43.852;25.952;2023-06-10T14:53:52;4.07;;;2.90;;
71558;SDS011;59382;43.852;25.952;2023-06-10T14:56:17;9.15;;;4.07;;
71558;SDS011;59382;43.852;25.952;2023-06-10T14:58:43;7.28;;;3.67;;
71558;SDS011;59382;43.852;25.952;2023-06-10T15:01:08;6.90;;;3.75;;
71558;SDS011;59382;43.852;25.952;2023-06-10T15:03:34;8.18;;;3.90;;
71558;SDS011;59382;43.852;25.952;2023-06-10T15:06:00;8.65;;;3.13;;
71558;SDS011;59382;43.852;25.952;2023-06-10T15:08:26;7.57;;;3.78;;
71558;SDS011;59382;43.852;25.952;2023-06-10T15:10:53;5.20;;;3.70;;
71558;SDS011;59382;43.852;25.952;2023-06-10T15:13:19;9.00;;;3.75;;
71558;SDS011;59382;43.852;25.952;2023-06-10T15:15:45;4.88;;;3.47;;
71558;SDS011;59382;43.852;25.952;2023-06-10T15:18:16;6.65;;;3.10;;
71558;SDS011;59382;43.852;25.952;2023-06-10T15:20:47;12.68;;;4.40;;
71558;SDS011;59382;43.852;25.952;2023-06-10T15:23:13;6.22;;;4.03;;
71558;SDS011;59382;43.852;25.952;2023-06-10T15:25:47;4.30;;;3.90;;
71558;SDS011;59382;43.852;25.952;2023-06-10T15:28:22;3.42;;;3.13;;